Data for 05/20/2014

Time Sea-Level Adjusted Pressure Absolute Pressure Temperature Relative Humidity Dew Point   
(mb) (inHg) (mb) (inHg) (C) (F) (%) (C) (F)
00:05 1017 30.03 846 24.98 8.7 47.6 60 1.3 34.3
00:10 1017 30.03 846 24.98 8.6 47.6 60 1.3 34.3
00:15 1017 30.03 846 24.98 8.5 47.2 61 1.3 34.4
00:20 1017 30.03 847 25.01 8.2 46.8 61 1.2 34.2
00:25 1017 30.03 847 25.01 8.1 46.6 63 1.5 34.6
00:30 1017 30.03 847 25.01 7.9 46.3 64 1.6 34.9
00:35 1017 30.03 847 25.01 7.7 45.8 63 1.2 34.1
00:40 1017 30.03 847 25.01 7.6 45.7 63 1 33.9
00:45 1017 30.03 847 25.01 7.6 45.8 62 0.9 33.7
00:50 1017 30.03 847 25.01 7.6 45.7 64 1.3 34.3
00:55 1017 30.03 847 25.01 7.3 45.2 65 1.3 34.4
01:00 1017 30.03 847 25.01 7.2 45 66 1.4 34.5
01:05 1017 30.03 847 25.01 7 44.6 68 1.5 34.7
01:10 1017 30.03 847 25.01 6.8 44.3 69 1.4 34.6
01:15 1017 30.03 847 25.01 6.7 44.1 68 1.3 34.4
01:20 1017 30.03 847 25.01 6.6 44 68 1.2 34.2
01:25 1017 30.03 847 25.01 6.6 43.8 69 1.2 34.2
01:30 1017 30.03 846 24.98 6.5 43.7 69 1.2 34.2
01:35 1017 30.03 846 24.98 6.4 43.6 69 1.2 34.1
01:40 1017 30.03 846 24.98 6.5 43.6 69 1.3 34.3
01:45 1017 30.03 847 25.01 6.4 43.5 70 1.2 34.2
01:50 1017 30.03 846 24.98 6.3 43.4 69 1.1 34
01:55 1017 30.03 846 24.98 6.5 43.7 69 1.1 34.1
02:00 1017 30.03 846 24.98 6.6 43.8 68 1.1 34
02:05 1017 30.03 846 24.98 6.5 43.8 69 1.2 34.1
02:10 1017 30.03 846 24.98 6.3 43.4 70 1.4 34.4
02:15 1017 30.03 846 24.98 6 42.9 71 1.3 34.3
02:20 1017 30.03 846 24.98 5.8 42.5 72 1.2 34.2
02:25 1017 30.03 847 25.01 5.7 42.2 73 1.2 34.1
02:30 1017 30.03 847 25.01 5.5 41.8 73 0.9 33.7
02:35 1017 30.03 846 24.98 5.3 41.6 73 0.9 33.6
02:40 1017 30.03 847 25.01 5.2 41.3 74 0.9 33.6
02:45 1017 30.03 847 25.01 5.1 41.2 74 0.8 33.4
02:50 1017 30.03 847 25.01 5.1 41.1 74 0.7 33.3
02:55 1017 30.03 847 25.01 5 41 74 0.8 33.4
03:00 1018 30.06 847 25.01 5 41 73 0.6 33.1
03:05 1018 30.06 847 25.01 5.1 41.1 72 0.5 32.9
03:10 1018 30.06 847 25.01 5.1 41.3 72 0.5 32.9
03:15 1018 30.06 847 25.01 5 41.1 73 0.7 33.2
03:20 1018 30.06 847 25.01 4.9 40.8 73 0.4 32.8
03:25 1018 30.06 847 25.01 4.9 40.8 74 0.6 33.1
03:30 1018 30.06 847 25.01 4.7 40.5 74 0.5 32.9
03:35 1018 30.06 847 25.01 4.7 40.4 74 0.4 32.7
03:40 1018 30.06 847 25.01 4.6 40.4 75 0.5 32.9
03:45 1018 30.06 847 25.01 4.4 39.9 75 0.4 32.8
03:50 1018 30.06 847 25.01 4.3 39.8 75 0.3 32.5
03:55 1018 30.06 847 25.01 4.4 40 74 0.2 32.4
04:00 1018 30.06 847 25.01 4.6 40.2 74 0.2 32.4
04:05 1018 30.06 847 25.01 4.7 40.4 72 0.1 32.2
04:10 1018 30.06 847 25.01 4.9 40.8 71 0.1 32.2
04:15 1018 30.06 847 25.01 5.1 41.2 71 0.2 32.3
04:20 1018 30.06 847 25.01 5.1 41.1 70 0.1 32.1
04:25 1018 30.06 847 25.01 5.1 41.1 71 0.2 32.4
04:30 1018 30.06 847 25.01 4.8 40.6 73 0.3 32.5
04:35 1018 30.06 847 25.01 4.4 39.9 74 0.2 32.4
04:40 1018 30.06 847 25.01 4.1 39.3 75 0 32
04:45 1018 30.06 847 25.01 4 39.2 75 -0.1 31.8
04:50 1018 30.06 847 25.01 4.1 39.4 74 -0 32
04:55 1018 30.06 847 25.01 4.1 39.5 75 0.1 32.2
05:00 1018 30.06 847 25.01 4 39.3 75 0.1 32.1
05:05 1018 30.06 847 25.01 3.9 39.1 76 0.1 32.2
05:10 1018 30.06 847 25.01 3.9 39 76 0 32
05:15 1018 30.06 847 25.01 3.9 39.1 75 -0 31.9
05:20 1018 30.06 847 25.01 4 39.2 75 -0.1 31.9
05:25 1018 30.06 847 25.01 4.2 39.6 74 -0.1 31.9
05:30 1018 30.06 847 25.01 4.4 40 73 -0.1 31.9
05:35 1018 30.06 847 25.01 4.7 40.5 71 -0.1 31.9
05:40 1018 30.06 848 25.04 4.9 40.9 70 0 32
05:45 1018 30.06 848 25.04 5 41.1 70 0.1 32.1
05:50 1018 30.06 848 25.04 5.1 41.1 70 0.1 32.3
05:55 1018 30.06 848 25.04 5.2 41.3 70 0.2 32.4
06:00 1018 30.06 848 25.04 5.3 41.6 69 0.2 32.4
06:05 1018 30.06 848 25.04 5.6 42 68 0.3 32.5
06:10 1019 30.09 848 25.04 5.8 42.4 68 0.3 32.6
06:15 1019 30.09 848 25.04 5.8 42.5 68 0.4 32.6
06:20 1019 30.09 848 25.04 6 42.9 66 0.3 32.5
06:25 1019 30.09 848 25.04 6.4 43.5 66 0.5 32.8
06:30 1019 30.09 848 25.04 6.7 44 64 0.4 32.7
06:35 1019 30.09 848 25.04 6.9 44.4 63 0.4 32.8
06:40 1019 30.09 848 25.04 7.6 45.6 61 0.7 33.2
06:45 1019 30.09 848 25.04 7.9 46.1 60 0.5 33
06:50 1019 30.09 848 25.04 8.3 46.9 59 0.8 33.5
06:55 1019 30.09 848 25.04 8.5 47.3 59 0.9 33.6
07:00 1019 30.09 848 25.04 8.7 47.7 58 1 33.8
07:05 1019 30.09 848 25.04 8.7 47.7 58 0.9 33.6
07:10 1019 30.09 848 25.04 8.8 47.8 57 0.8 33.5
07:15 1019 30.09 848 25.04 9.3 48.8 54 0.7 33.2
07:20 1019 30.09 848 25.04 10.3 50.6 53 1.2 34.2
07:25 1019 30.09 848 25.04 10.7 51.3 51 1.1 33.9
07:30 1019 30.09 848 25.04 10.9 51.5 51 1.3 34.3
07:35 1019 30.09 848 25.04 11.1 52 50 1.2 34.2
07:40 1019 30.09 848 25.04 11.6 52.8 48 1 33.9
07:45 1019 30.09 848 25.04 11.5 52.7 50 1.4 34.6
07:50 1019 30.09 848 25.04 11.2 52.2 49 1 33.7
07:55 1019 30.09 848 25.04 11.7 53 46 0.5 33
08:00 1019 30.09 848 25.04 12.1 53.7 47 1.1 34
08:05 1019 30.09 848 25.04 11.8 53.3 49 1.4 34.5
08:10 1019 30.09 848 25.04 12 53.6 48 1.3 34.4
08:15 1019 30.09 848 25.04 11.6 52.8 48 1.1 33.9
08:20 1019 30.09 848 25.04 11 51.8 54 2 35.6
08:25 1019 30.09 848 25.04 10.8 51.4 52 1.3 34.3
08:30 1019 30.09 848 25.04 11.6 52.9 50 1.5 34.6
08:35 1019 30.09 848 25.04 12.3 54.1 47 1.3 34.3
08:40 1019 30.09 848 25.04 12.4 54.4 46 1.3 34.4
08:45 1019 30.09 848 25.04 12.3 54.1 47 1.5 34.6
08:50 1019 30.09 848 25.04 12.8 55.1 44 0.8 33.5
08:55 1019 30.09 848 25.04 13 55.3 44 1 33.7
09:00 1019 30.09 848 25.04 12.8 55.1 46 1.5 34.7
09:05 1019 30.09 848 25.04 13.2 55.7 43 0.9 33.6
09:10 1019 30.09 848 25.04 13.5 56.3 42 1 33.8
09:15 1018 30.06 848 25.04 13.5 56.2 41 0.5 32.9
09:20 1018 30.06 848 25.04 14.2 57.5 40 0.7 33.3
09:25 1018 30.06 848 25.04 14.3 57.7 40 0.8 33.5
09:30 1018 30.06 848 25.04 14.7 58.5 40 1.5 34.7
09:35 1018 30.06 848 25.04 13.9 57 46 2.5 36.4
09:40 1018 30.06 848 25.04 14 57.1 43 1.7 35.1
09:45 1018 30.06 848 25.04 14.3 57.7 42 1.7 35
09:50 1018 30.06 848 25.04 14.5 58 41 1.4 34.5
09:55 1018 30.06 848 25.04 14.2 57.5 43 1.9 35.4
10:00 1018 30.06 848 25.04 14 57.2 42 1.5 34.6
10:05 1018 30.06 847 25.01 14.6 58.3 41 1.7 35
10:10 1018 30.06 847 25.01 15.1 59.2 40 1.8 35.2
10:15 1018 30.06 847 25.01 15.2 59.4 39 1.4 34.4
10:20 1018 30.06 847 25.01 15.6 60.2 39 1.8 35.3
10:25 1018 30.06 847 25.01 15.8 60.5 39 1.9 35.5
10:30 1018 30.06 847 25.01 15.7 60.2 39 1.8 35.2
10:35 1018 30.06 847 25.01 16 60.7 38 1.8 35.3
10:40 1018 30.06 847 25.01 16.4 61.6 39 2.5 36.5
10:45 1018 30.06 847 25.01 16.3 61.3 37 1.6 34.9
10:50 1018 30.06 847 25.01 15 59 42 2.1 35.9
10:55 1018 30.06 847 25.01 15.4 59.6 40 1.9 35.4
11:00 1018 30.06 847 25.01 15.7 60.3 39 2.1 35.7
11:05 1018 30.06 847 25.01 15.9 60.7 41 2.7 36.8
11:10 1018 30.06 847 25.01 15.3 59.5 39 1.4 34.5
11:15 1018 30.06 847 25.01 15.8 60.5 38 1.5 34.8
11:20 1018 30.06 847 25.01 16.2 61.2 37 1.5 34.7
11:25 1018 30.06 847 25.01 16.1 60.9 40 2.4 36.3
11:30 1018 30.06 847 25.01 14.8 58.7 42 2.2 35.9
11:35 1018 30.06 847 25.01 14.5 58 42 1.7 35
11:40 1018 30.06 847 25.01 15.5 59.9 38 1.4 34.6
11:45 1018 30.06 847 25.01 14.9 58.8 38 0.8 33.4
11:50 1018 30.06 847 25.01 15.7 60.3 39 2 35.5
11:55 1018 30.06 847 25.01 15.8 60.4 39 2.1 35.7
12:00 1018 30.06 847 25.01 16.3 61.4 39 2.6 36.6
12:05 1018 30.06 847 25.01 16.4 61.4 37 1.9 35.5
12:10 1018 30.06 847 25.01 15.2 59.4 37 0.9 33.5
12:15 1018 30.06 847 25.01 16.5 61.7 35 1.3 34.3
12:20 1018 30.06 847 25.01 15.6 60.1 38 1.5 34.6
12:25 1018 30.06 847 25.01 16.7 62 35 1.3 34.3
12:30 1018 30.06 847 25.01 17.3 63.1 34 1.2 34.1
12:35 1018 30.06 847 25.01 18.1 64.6 33 1.7 35
12:40 1018 30.06 847 25.01 17.4 63.4 36 2.5 36.5
12:45 1018 30.06 847 25.01 16.5 61.7 34 0.7 33.2
12:50 1018 30.06 847 25.01 16.8 62.2 36 1.6 34.8
12:55 1018 30.06 847 25.01 16.8 62.3 33 0.5 32.9
13:00 1018 30.06 847 25.01 17.2 63 34 1.2 34.2
13:05 1018 30.06 847 25.01 17.3 63.1 32 0.6 33.1
13:10 1018 30.06 847 25.01 17.5 63.5 32 0.7 33.3
13:15 1018 30.06 847 25.01 17.1 62.7 33 0.9 33.6
13:20 1017 30.03 847 25.01 17.2 63 32 0.6 33
13:25 1017 30.03 847 25.01 17.1 62.8 32 0.2 32.4
13:30 1017 30.03 847 25.01 16.7 62.1 31 -0.4 31.4
13:35 1017 30.03 847 25.01 16.5 61.8 32 -0.2 31.7
13:40 1017 30.03 847 25.01 17 62.5 31 -0 31.9
13:45 1017 30.03 847 25.01 16.5 61.8 33 0.2 32.4
13:50 1017 30.03 847 25.01 16.5 61.8 33 0.3 32.6
13:55 1017 30.03 847 25.01 15.5 59.9 34 0 32
14:00 1017 30.03 847 25.01 15.4 59.8 32 -1.1 30
14:05 1017 30.03 847 25.01 15.1 59.2 31 -1.6 29.1
14:10 1017 30.03 847 25.01 15.3 59.5 31 -1.5 29.2
14:15 1017 30.03 847 25.01 15.1 59.1 38 0.9 33.6
14:20 1017 30.03 847 25.01 14.6 58.2 35 -0.5 31.1
14:25 1017 30.03 847 25.01 15.1 59.3 34 -0.4 31.3
14:30 1017 30.03 847 25.01 15.6 60.1 31 -1.2 29.8
14:35 1018 30.06 847 25.01 15 59.1 33 -0.9 30.4
14:40 1017 30.03 847 25.01 15.2 59.3 34 -0.6 31
14:45 1017 30.03 847 25.01 16 60.7 32 -0.6 31
14:50 1017 30.03 847 25.01 15.6 60 31 -1.4 29.5
14:55 1017 30.03 847 25.01 15.7 60.3 31 -1.4 29.5
15:00 1017 30.03 847 25.01 15.6 60 32 -1.2 29.9
15:05 1017 30.03 847 25.01 15.9 60.5 29 -2 28.4
15:10 1017 30.03 847 25.01 16.2 61.1 29 -1.6 29.1
15:15 1017 30.03 847 25.01 16.3 61.3 29 -1.9 28.7
15:20 1017 30.03 847 25.01 16.3 61.3 29 -1.8 28.8
15:25 1017 30.03 847 25.01 16.8 62.2 27 -2 28.4
15:30 1017 30.03 847 25.01 17.2 62.9 28 -1.1 29.9
15:35 1017 30.03 847 25.01 17 62.6 28 -1.7 29
15:40 1017 30.03 846 24.98 17.1 62.9 27 -1.7 29
15:45 1017 30.03 846 24.98 17.1 62.9 29 -0.8 30.6
15:50 1017 30.03 846 24.98 17 62.5 26 -2.5 27.6
15:55 1017 30.03 846 24.98 16.9 62.4 25 -3 26.6
16:00 1017 30.03 846 24.98 17 62.7 27 -1.8 28.8
16:05 1017 30.03 846 24.98 16.6 61.9 29 -1.4 29.5
16:10 1017 30.03 846 24.98 16.8 62.2 28 -1.8 28.7
16:15 1017 30.03 846 24.98 16.8 62.2 28 -1.6 29.2
16:20 1017 30.03 846 24.98 16.6 61.9 30 -0.8 30.5
16:25 1017 30.03 846 24.98 16.6 61.9 31 -0.6 30.9
16:30 1017 30.03 846 24.98 17.1 62.7 30 -0.4 31.3
16:35 1017 30.03 846 24.98 17.2 62.9 31 0.2 32.3
16:40 1017 30.03 846 24.98 16.7 62 31 -0.3 31.5
16:45 1017 30.03 846 24.98 17 62.6 31 -0.2 31.7
16:50 1017 30.03 846 24.98 17 62.6 31 0 32
16:55 1017 30.03 846 24.98 17.1 62.7 31 -0.3 31.5
17:00 1017 30.03 846 24.98 17.2 63 30 -0.4 31.3
17:05 1017 30.03 846 24.98 17.1 62.7 29 -1 30.2
17:10 1017 30.03 846 24.98 16.9 62.3 31 -0.4 31.4
17:15 1017 30.03 846 24.98 17 62.7 30 -0.6 30.9
17:20 1017 30.03 846 24.98 17.2 63 28 -1.1 30
17:25 1017 30.03 846 24.98 17.3 63.2 28 -1.3 29.6
17:30 1017 30.03 846 24.98 17.2 62.9 29 -1.1 30.1
17:35 1017 30.03 846 24.98 16.9 62.5 30 -0.7 30.7
17:40 1017 30.03 846 24.98 16.5 61.8 29 -1.4 29.5
17:45 1017 30.03 846 24.98 16.5 61.7 32 -0.3 31.4
17:50 1017 30.03 846 24.98 16.4 61.5 31 -0.7 30.7
17:55 1017 30.03 846 24.98 16.4 61.5 31 -0.6 31
18:00 1017 30.03 846 24.98 16.3 61.4 31 -0.9 30.3
18:05 1017 30.03 846 24.98 16.1 61 32 -0.5 31
18:10 1017 30.03 846 24.98 16.1 61 33 0 32
18:15 1017 30.03 846 24.98 15.9 60.5 33 -0.1 31.8
18:20 1017 30.03 846 24.98 15.9 60.5 35 0.4 32.7
18:25 1017 30.03 846 24.98 15.7 60.3 34 0.1 32.1
18:30 1017 30.03 846 24.98 15.7 60.2 35 0.5 32.9
18:35 1017 30.03 846 24.98 15.6 60 35 0.3 32.6
18:40 1017 30.03 846 24.98 15.4 59.8 35 0.1 32.2
18:45 1017 30.03 846 24.98 15.4 59.7 37 0.7 33.3
18:50 1017 30.03 846 24.98 15.3 59.6 37 1 33.8
18:55 1017 30.03 847 25.01 15.2 59.4 38 1 33.8
19:00 1017 30.03 847 25.01 15.2 59.4 38 1.1 34
19:05 1017 30.03 847 25.01 15.2 59.4 39 1.3 34.4
19:10 1017 30.03 847 25.01 15.1 59.2 40 1.7 35.1
19:15 1017 30.03 847 25.01 15 59 40 1.7 35.1
19:20 1017 30.03 847 25.01 14.9 58.7 41 1.7 35
19:25 1017 30.03 847 25.01 14.7 58.5 41 1.7 35.1
19:30 1017 30.03 847 25.01 14.6 58.3 42 1.8 35.3
19:35 1018 30.06 847 25.01 14.5 58.1 42 1.8 35.2
19:40 1018 30.06 847 25.01 14.4 57.9 42 1.8 35.2
19:45 1018 30.06 847 25.01 14.3 57.7 43 2 35.6
19:50 1018 30.06 847 25.01 14.1 57.4 44 2 35.7
19:55 1018 30.06 847 25.01 13.9 57.1 44 2.1 35.8
20:00 1018 30.06 847 25.01 13.8 56.9 45 2.2 36
20:05 1018 30.06 847 25.01 13.6 56.5 46 2.4 36.3
20:10 1018 30.06 847 25.01 13.4 56.1 47 2.5 36.5
20:15 1018 30.06 847 25.01 13.2 55.7 48 2.5 36.4
20:20 1018 30.06 847 25.01 13 55.5 49 2.6 36.6
20:25 1018 30.06 847 25.01 12.9 55.2 49 2.5 36.4
20:30 1018 30.06 847 25.01 12.9 55.1 49 2.4 36.3
20:35 1018 30.06 847 25.01 12.9 55.2 48 2.3 36.1
20:40 1018 30.06 847 25.01 12.9 55.1 48 2.3 36.1
20:45 1018 30.06 847 25.01 12.8 55 49 2.3 36.1
20:50 1018 30.06 847 25.01 12.7 54.8 49 2.2 35.9
20:55 1018 30.06 847 25.01 12.6 54.7 49 2.3 36.2
21:00 1018 30.06 847 25.01 12.5 54.4 49 2.2 35.9
21:05 1018 30.06 847 25.01 12.4 54.3 49 2.1 35.8
21:10 1018 30.06 847 25.01 12.3 54.2 50 2.1 35.8
21:15 1018 30.06 848 25.04 12.3 54.1 49 2 35.5
21:20 1018 30.06 848 25.04 12.2 54 50 2.2 36
21:25 1018 30.06 848 25.04 12 53.5 53 2.6 36.7
21:30 1018 30.06 848 25.04 11.6 52.9 52 2.2 35.9
21:35 1018 30.06 848 25.04 11.7 53 52 2.2 36
21:40 1018 30.06 848 25.04 11.8 53.2 52 2.3 36.1
21:45 1019 30.09 848 25.04 11.6 52.9 53 2.4 36.4
21:50 1019 30.09 848 25.04 11.6 52.8 52 2.2 35.9
21:55 1019 30.09 848 25.04 11.6 52.8 53 2.4 36.3
22:00 1019 30.09 848 25.04 11.4 52.6 54 2.4 36.4
22:05 1019 30.09 848 25.04 11.3 52.3 54 2.5 36.4
22:10 1019 30.09 848 25.04 11.3 52.4 54 2.5 36.4
22:15 1019 30.09 848 25.04 11.3 52.4 54 2.5 36.4
22:20 1019 30.09 848 25.04 11.3 52.3 55 2.5 36.5
22:25 1019 30.09 848 25.04 11.3 52.3 55 2.6 36.7
22:30 1019 30.09 848 25.04 11.3 52.3 55 2.6 36.6
22:35 1019 30.09 848 25.04 11.2 52.2 55 2.6 36.7
22:40 1019 30.09 848 25.04 11.2 52.2 55 2.7 36.8
22:45 1019 30.09 848 25.04 11.2 52.2 55 2.6 36.7
22:50 1019 30.09 848 25.04 11.2 52.2 55 2.7 36.8
22:55 1019 30.09 848 25.04 11.1 52 56 2.6 36.7
23:00 1019 30.09 848 25.04 11.1 52 56 2.6 36.8
23:05 1019 30.09 848 25.04 11 51.9 56 2.6 36.7
23:10 1019 30.09 848 25.04 10.9 51.7 57 2.7 36.8
23:15 1019 30.09 848 25.04 10.8 51.5 57 2.6 36.7
23:20 1019 30.09 848 25.04 10.9 51.6 57 2.7 36.8
23:25 1019 30.09 848 25.04 10.9 51.6 57 2.8 37
23:30 1019 30.09 848 25.04 10.8 51.5 57 2.8 37
23:35 1019 30.09 848 25.04 10.7 51.2 58 2.9 37.1
23:40 1019 30.09 848 25.04 10.5 50.9 58 2.8 37
23:45 1019 30.09 848 25.04 10.4 50.8 59 2.8 37.1
23:50 1018 30.06 848 25.04 10.4 50.7 59 2.8 37
23:55 1018 30.06 848 25.04 10.4 50.7 59 2.8 37.1
24:00 1018 30.06 848 25.04 10.3 50.6 60 2.9 37.2